sensor_id;sensor_type;location;lat;lon;timestamp;temperature;humidity
2387;DHT22;49473;50.772;8.768;2022-07-04T00:58:08;17.10;99.90
2387;DHT22;49473;50.772;8.768;2022-07-04T01:00:35;16.80;99.90
2387;DHT22;49473;50.772;8.768;2022-07-04T01:03:02;16.70;99.90
2387;DHT22;49473;50.772;8.768;2022-07-04T01:05:29;16.60;99.90
2387;DHT22;49473;50.772;8.768;2022-07-04T01:07:56;16.50;99.90
2387;DHT22;49473;50.772;8.768;2022-07-04T01:10:23;16.50;99.90
2387;DHT22;49473;50.772;8.768;2022-07-04T01:12:51;16.40;99.90
2387;DHT22;49473;50.772;8.768;2022-07-04T01:15:19;16.40;99.90
2387;DHT22;49473;50.772;8.768;2022-07-04T01:17:46;16.40;99.90
2387;DHT22;49473;50.772;8.768;2022-07-04T01:20:15;16.40;99.90
2387;DHT22;49473;50.772;8.768;2022-07-04T01:22:42;16.30;99.90
2387;DHT22;49473;50.772;8.768;2022-07-04T01:25:09;16.20;99.90
2387;DHT22;49473;50.772;8.768;2022-07-04T01:27:36;16.00;99.90
2387;DHT22;49473;50.772;8.768;2022-07-04T01:30:03;15.90;99.90
2387;DHT22;49473;50.772;8.768;2022-07-04T01:32:30;15.80;99.90
2387;DHT22;49473;50.772;8.768;2022-07-04T01:34:57;15.70;99.90
2387;DHT22;49473;50.772;8.768;2022-07-04T01:37:25;15.60;99.90
2387;DHT22;49473;50.772;8.768;2022-07-04T01:39:52;15.60;99.90
2387;DHT22;49473;50.772;8.768;2022-07-04T01:42:18;15.60;99.90
2387;DHT22;49473;50.772;8.768;2022-07-04T01:44:45;15.70;99.90
2387;DHT22;49473;50.772;8.768;2022-07-04T01:47:12;15.70;99.90
2387;DHT22;49473;50.772;8.768;2022-07-04T01:49:39;15.70;99.90
2387;DHT22;49473;50.772;8.768;2022-07-04T01:52:06;15.70;99.90
2387;DHT22;49473;50.772;8.768;2022-07-04T01:54:34;15.60;99.90
2387;DHT22;49473;50.772;8.768;2022-07-04T01:57:01;15.60;99.90
2387;DHT22;49473;50.772;8.768;2022-07-04T01:59:27;15.40;99.90
2387;DHT22;49473;50.772;8.768;2022-07-04T02:02:08;15.30;99.90
2387;DHT22;49473;50.772;8.768;2022-07-04T02:04:35;15.20;99.90
2387;DHT22;49473;50.772;8.768;2022-07-04T02:07:02;15.10;99.90
2387;DHT22;49473;50.772;8.768;2022-07-04T02:09:29;15.00;99.90
2387;DHT22;49473;50.772;8.768;2022-07-04T02:11:58;15.00;99.90
2387;DHT22;49473;50.772;8.768;2022-07-04T02:14:43;15.10;99.90
2387;DHT22;49473;50.772;8.768;2022-07-04T02:17:10;15.10;99.90
2387;DHT22;49473;50.772;8.768;2022-07-04T02:19:37;15.00;99.90
2387;DHT22;49473;50.772;8.768;2022-07-04T02:22:04;15.00;99.90
2387;DHT22;49473;50.772;8.768;2022-07-04T02:24:31;14.90;99.90
2387;DHT22;49473;50.772;8.768;2022-07-04T02:26:59;14.80;99.90
2387;DHT22;49473;50.772;8.768;2022-07-04T02:29:26;14.70;99.90
2387;DHT22;49473;50.772;8.768;2022-07-04T02:31:53;14.60;99.90
2387;DHT22;49473;50.772;8.768;2022-07-04T02:34:19;14.50;99.90
2387;DHT22;49473;50.772;8.768;2022-07-04T02:36:46;14.40;99.90
2387;DHT22;49473;50.772;8.768;2022-07-04T02:39:13;14.30;99.90
2387;DHT22;49473;50.772;8.768;2022-07-04T02:41:40;14.30;99.90
2387;DHT22;49473;50.772;8.768;2022-07-04T02:44:08;14.30;99.90
2387;DHT22;49473;50.772;8.768;2022-07-04T02:46:35;14.30;99.90
2387;DHT22;49473;50.772;8.768;2022-07-04T02:49:03;14.30;99.90
2387;DHT22;49473;50.772;8.768;2022-07-04T02:51:30;14.20;99.90
2387;DHT22;49473;50.772;8.768;2022-07-04T02:53:57;14.00;99.90
2387;DHT22;49473;50.772;8.768;2022-07-04T02:56:24;13.90;99.90
2387;DHT22;49473;50.772;8.768;2022-07-04T02:58:51;13.90;99.90
2387;DHT22;49473;50.772;8.768;2022-07-04T03:01:19;13.90;99.90
2387;DHT22;49473;50.772;8.768;2022-07-04T03:03:46;13.80;99.90
2387;DHT22;49473;50.772;8.768;2022-07-04T03:06:13;13.80;99.90
2387;DHT22;49473;50.772;8.768;2022-07-04T03:08:40;13.80;99.90
2387;DHT22;49473;50.772;8.768;2022-07-04T03:11:07;13.80;99.90
2387;DHT22;49473;50.772;8.768;2022-07-04T03:13:35;13.80;99.90
2387;DHT22;49473;50.772;8.768;2022-07-04T03:16:02;13.80;99.90
2387;DHT22;49473;50.772;8.768;2022-07-04T03:18:31;13.70;99.90
2387;DHT22;49473;50.772;8.768;2022-07-04T03:20:57;13.70;99.90
2387;DHT22;49473;50.772;8.768;2022-07-04T03:23:24;13.70;99.90
2387;DHT22;49473;50.772;8.768;2022-07-04T03:25:51;13.70;99.90
2387;DHT22;49473;50.772;8.768;2022-07-04T03:28:17;13.60;99.90
2387;DHT22;49473;50.772;8.768;2022-07-04T03:30:44;13.60;99.90
2387;DHT22;49473;50.772;8.768;2022-07-04T03:33:11;13.80;99.90
2387;DHT22;49473;50.772;8.768;2022-07-04T03:35:39;13.90;99.90
2387;DHT22;49473;50.772;8.768;2022-07-04T03:38:06;14.00;99.90
2387;DHT22;49473;50.772;8.768;2022-07-04T03:40:33;13.90;99.90
2387;DHT22;49473;50.772;8.768;2022-07-04T03:43:01;13.70;99.90
2387;DHT22;49473;50.772;8.768;2022-07-04T03:45:28;13.60;99.90
2387;DHT22;49473;50.772;8.768;2022-07-04T03:47:55;13.50;99.90
2387;DHT22;49473;50.772;8.768;2022-07-04T03:50:23;13.40;99.90
2387;DHT22;49473;50.772;8.768;2022-07-04T03:52:51;13.40;99.90
2387;DHT22;49473;50.772;8.768;2022-07-04T03:55:18;13.40;99.90
2387;DHT22;49473;50.772;8.768;2022-07-04T03:57:44;13.30;99.90
2387;DHT22;49473;50.772;8.768;2022-07-04T04:00:12;13.30;99.90
2387;DHT22;49473;50.772;8.768;2022-07-04T04:02:40;13.20;99.90
2387;DHT22;49473;50.772;8.768;2022-07-04T04:05:07;13.20;99.90
2387;DHT22;49473;50.772;8.768;2022-07-04T04:07:54;13.20;99.90
2387;DHT22;49473;50.772;8.768;2022-07-04T04:10:21;13.20;99.90
2387;DHT22;49473;50.772;8.768;2022-07-04T04:12:48;13.20;99.90
2387;DHT22;49473;50.772;8.768;2022-07-04T04:15:15;13.20;99.90
2387;DHT22;49473;50.772;8.768;2022-07-04T04:17:42;13.30;99.90
2387;DHT22;49473;50.772;8.768;2022-07-04T04:20:09;13.30;99.90
2387;DHT22;49473;50.772;8.768;2022-07-04T04:22:36;13.40;99.90
2387;DHT22;49473;50.772;8.768;2022-07-04T04:25:05;13.40;99.90
2387;DHT22;49473;50.772;8.768;2022-07-04T04:27:32;13.50;99.90
2387;DHT22;49473;50.772;8.768;2022-07-04T04:29:59;13.60;99.90
2387;DHT22;49473;50.772;8.768;2022-07-04T04:32:26;13.80;99.90
2387;DHT22;49473;50.772;8.768;2022-07-04T04:34:53;13.80;99.90
2387;DHT22;49473;50.772;8.768;2022-07-04T04:37:20;13.90;99.90
2387;DHT22;49473;50.772;8.768;2022-07-04T04:39:47;14.10;99.90
2387;DHT22;49473;50.772;8.768;2022-07-04T04:42:15;14.20;99.90
2387;DHT22;49473;50.772;8.768;2022-07-04T04:44:42;14.30;99.90
2387;DHT22;49473;50.772;8.768;2022-07-04T04:47:08;14.30;99.90
2387;DHT22;49473;50.772;8.768;2022-07-04T04:49:35;14.40;99.90
2387;DHT22;49473;50.772;8.768;2022-07-04T04:52:03;14.50;99.90
2387;DHT22;49473;50.772;8.768;2022-07-04T04:54:32;14.60;99.90
2387;DHT22;49473;50.772;8.768;2022-07-04T04:56:59;14.70;99.90
2387;DHT22;49473;50.772;8.768;2022-07-04T04:59:27;14.90;99.90
2387;DHT22;49473;50.772;8.768;2022-07-04T05:01:55;15.00;99.90
2387;DHT22;49473;50.772;8.768;2022-07-04T05:04:21;15.20;99.90
2387;DHT22;49473;50.772;8.768;2022-07-04T05:06:48;15.40;99.90
2387;DHT22;49473;50.772;8.768;2022-07-04T05:09:15;15.60;99.90
2387;DHT22;49473;50.772;8.768;2022-07-04T05:11:42;15.80;99.90
2387;DHT22;49473;50.772;8.768;2022-07-04T05:14:09;15.80;99.90
2387;DHT22;49473;50.772;8.768;2022-07-04T05:16:37;15.90;99.90
2387;DHT22;49473;50.772;8.768;2022-07-04T05:19:04;16.00;99.90
2387;DHT22;49473;50.772;8.768;2022-07-04T05:21:31;16.20;99.90
2387;DHT22;49473;50.772;8.768;2022-07-04T05:23:57;16.50;99.90
2387;DHT22;49473;50.772;8.768;2022-07-04T05:26:25;16.80;99.90
2387;DHT22;49473;50.772;8.768;2022-07-04T05:28:51;17.20;99.90
2387;DHT22;49473;50.772;8.768;2022-07-04T05:31:18;17.50;99.90
2387;DHT22;49473;50.772;8.768;2022-07-04T05:33:46;17.70;99.90
2387;DHT22;49473;50.772;8.768;2022-07-04T05:36:13;17.70;99.90
2387;DHT22;49473;50.772;8.768;2022-07-04T05:38:40;17.80;99.90
2387;DHT22;49473;50.772;8.768;2022-07-04T05:41:07;17.90;99.90
2387;DHT22;49473;50.772;8.768;2022-07-04T05:43:34;17.90;99.90
2387;DHT22;49473;50.772;8.768;2022-07-04T05:46:00;18.00;99.90
2387;DHT22;49473;50.772;8.768;2022-07-04T05:48:27;18.10;99.90
2387;DHT22;49473;50.772;8.768;2022-07-04T05:50:55;18.30;99.90
2387;DHT22;49473;50.772;8.768;2022-07-04T05:53:22;18.60;99.90
2387;DHT22;49473;50.772;8.768;2022-07-04T05:55:49;18.80;99.90
2387;DHT22;49473;50.772;8.768;2022-07-04T05:58:16;18.90;99.90
2387;DHT22;49473;50.772;8.768;2022-07-04T06:00:43;18.90;99.90
2387;DHT22;49473;50.772;8.768;2022-07-04T06:03:10;19.10;99.90
2387;DHT22;49473;50.772;8.768;2022-07-04T06:05:37;19.20;99.90
2387;DHT22;49473;50.772;8.768;2022-07-04T06:08:05;19.30;99.90
2387;DHT22;49473;50.772;8.768;2022-07-04T06:10:32;19.50;99.90
2387;DHT22;49473;50.772;8.768;2022-07-04T06:12:59;19.80;99.90
2387;DHT22;49473;50.772;8.768;2022-07-04T06:15:25;20.20;99.90
2387;DHT22;49473;50.772;8.768;2022-07-04T06:17:52;20.60;99.90
2387;DHT22;49473;50.772;8.768;2022-07-04T06:20:19;21.10;99.90
2387;DHT22;49473;50.772;8.768;2022-07-04T06:22:47;21.40;99.90
2387;DHT22;49473;50.772;8.768;2022-07-04T06:25:17;21.50;99.90
2387;DHT22;49473;50.772;8.768;2022-07-04T06:27:46;22.00;99.90
2387;DHT22;49473;50.772;8.768;2022-07-04T06:30:14;22.60;99.90
2387;DHT22;49473;50.772;8.768;2022-07-04T06:32:43;22.40;99.90
2387;DHT22;49473;50.772;8.768;2022-07-04T06:35:10;22.20;99.90
2387;DHT22;49473;50.772;8.768;2022-07-04T06:37:54;22.50;99.90
2387;DHT22;49473;50.772;8.768;2022-07-04T06:40:22;22.90;99.90
2387;DHT22;49473;50.772;8.768;2022-07-04T06:42:49;23.10;99.90
2387;DHT22;49473;50.772;8.768;2022-07-04T06:45:16;23.00;99.90
2387;DHT22;49473;50.772;8.768;2022-07-04T06:47:44;23.30;99.90
2387;DHT22;49473;50.772;8.768;2022-07-04T06:50:11;23.50;99.90
2387;DHT22;49473;50.772;8.768;2022-07-04T06:52:38;24.10;99.90
2387;DHT22;49473;50.772;8.768;2022-07-04T06:55:05;24.00;99.90
2387;DHT22;49473;50.772;8.768;2022-07-04T06:57:34;23.70;99.90
2387;DHT22;49473;50.772;8.768;2022-07-04T07:00:01;24.20;99.90
2387;DHT22;49473;50.772;8.768;2022-07-04T07:02:28;24.30;99.90
2387;DHT22;49473;50.772;8.768;2022-07-04T07:04:56;24.70;99.90
2387;DHT22;49473;50.772;8.768;2022-07-04T07:07:22;25.70;99.90
2387;DHT22;49473;50.772;8.768;2022-07-04T07:09:51;26.00;99.40
2387;DHT22;49473;50.772;8.768;2022-07-04T07:12:18;25.90;97.50
2387;DHT22;49473;50.772;8.768;2022-07-04T07:14:46;26.70;96.50
2387;DHT22;49473;50.772;8.768;2022-07-04T07:17:13;27.50;95.60
2387;DHT22;49473;50.772;8.768;2022-07-04T07:19:40;27.90;93.50
2387;DHT22;49473;50.772;8.768;2022-07-04T07:22:08;28.40;92.30
2387;DHT22;49473;50.772;8.768;2022-07-04T07:24:34;28.00;91.20
2387;DHT22;49473;50.772;8.768;2022-07-04T07:27:02;27.80;91.10
2387;DHT22;49473;50.772;8.768;2022-07-04T07:29:28;28.20;91.40
2387;DHT22;49473;50.772;8.768;2022-07-04T07:31:57;28.90;89.70
2387;DHT22;49473;50.772;8.768;2022-07-04T07:34:24;28.40;86.70
2387;DHT22;49473;50.772;8.768;2022-07-04T07:36:51;29.10;85.70
2387;DHT22;49473;50.772;8.768;2022-07-04T07:39:18;29.30;84.90
2387;DHT22;49473;50.772;8.768;2022-07-04T07:41:45;29.10;83.40
2387;DHT22;49473;50.772;8.768;2022-07-04T07:44:12;29.50;83.00
2387;DHT22;49473;50.772;8.768;2022-07-04T07:46:39;29.20;80.80
2387;DHT22;49473;50.772;8.768;2022-07-04T07:49:07;29.30;81.90
2387;DHT22;49473;50.772;8.768;2022-07-04T07:51:34;30.20;81.60
2387;DHT22;49473;50.772;8.768;2022-07-04T07:54:01;31.00;80.40
2387;DHT22;49473;50.772;8.768;2022-07-04T07:56:27;31.30;79.40
2387;DHT22;49473;50.772;8.768;2022-07-04T07:58:54;31.90;76.60
2387;DHT22;49473;50.772;8.768;2022-07-04T08:01:21;31.70;73.80
2387;DHT22;49473;50.772;8.768;2022-07-04T08:03:48;31.70;73.40
2387;DHT22;49473;50.772;8.768;2022-07-04T08:06:33;31.90;73.30
2387;DHT22;49473;50.772;8.768;2022-07-04T08:09:00;32.70;67.70
2387;DHT22;49473;50.772;8.768;2022-07-04T08:11:27;33.00;67.50
2387;DHT22;49473;50.772;8.768;2022-07-04T08:13:54;33.30;65.90
2387;DHT22;49473;50.772;8.768;2022-07-04T08:16:21;32.60;64.90
2387;DHT22;49473;50.772;8.768;2022-07-04T08:18:47;32.80;63.00
2387;DHT22;49473;50.772;8.768;2022-07-04T08:21:14;32.50;61.90
2387;DHT22;49473;50.772;8.768;2022-07-04T08:23:42;31.20;61.10
2387;DHT22;49473;50.772;8.768;2022-07-04T08:26:09;32.20;61.20
2387;DHT22;49473;50.772;8.768;2022-07-04T08:28:36;33.30;60.80
2387;DHT22;49473;50.772;8.768;2022-07-04T08:31:02;33.10;57.80
2387;DHT22;49473;50.772;8.768;2022-07-04T08:33:30;33.40;58.40
2387;DHT22;49473;50.772;8.768;2022-07-04T08:35:57;34.10;56.90
2387;DHT22;49473;50.772;8.768;2022-07-04T08:38:24;33.60;56.50
2387;DHT22;49473;50.772;8.768;2022-07-04T08:40:56;33.80;55.70
2387;DHT22;49473;50.772;8.768;2022-07-04T08:43:24;33.80;55.70
2387;DHT22;49473;50.772;8.768;2022-07-04T08:45:53;32.90;54.70
2387;DHT22;49473;50.772;8.768;2022-07-04T08:48:23;33.80;55.20
2387;DHT22;49473;50.772;8.768;2022-07-04T08:50:54;35.20;54.10
2387;DHT22;49473;50.772;8.768;2022-07-04T08:53:21;34.90;52.50
2387;DHT22;49473;50.772;8.768;2022-07-04T08:55:53;35.40;53.20
2387;DHT22;49473;50.772;8.768;2022-07-04T08:58:39;35.30;52.00
2387;DHT22;49473;50.772;8.768;2022-07-04T09:01:07;35.20;51.20
2387;DHT22;49473;50.772;8.768;2022-07-04T09:03:41;36.60;51.90
2387;DHT22;49473;50.772;8.768;2022-07-04T09:06:08;36.80;50.10
2387;DHT22;49473;50.772;8.768;2022-07-04T09:08:35;35.60;48.90
2387;DHT22;49473;50.772;8.768;2022-07-04T09:11:04;35.80;49.90
2387;DHT22;49473;50.772;8.768;2022-07-04T09:13:31;36.10;49.00
2387;DHT22;49473;50.772;8.768;2022-07-04T09:15:59;36.50;48.40
2387;DHT22;49473;50.772;8.768;2022-07-04T09:18:28;36.70;47.60
2387;DHT22;49473;50.772;8.768;2022-07-04T09:20:56;36.20;48.40
2387;DHT22;49473;50.772;8.768;2022-07-04T09:23:25;35.50;47.30
2387;DHT22;49473;50.772;8.768;2022-07-04T09:26:09;36.20;48.40
2387;DHT22;49473;50.772;8.768;2022-07-04T09:28:36;37.10;47.80
2387;DHT22;49473;50.772;8.768;2022-07-04T09:31:16;36.70;47.10
2387;DHT22;49473;50.772;8.768;2022-07-04T09:33:52;37.60;46.10
2387;DHT22;49473;50.772;8.768;2022-07-04T09:36:20;37.30;47.30
2387;DHT22;49473;50.772;8.768;2022-07-04T09:39:11;35.70;47.20
2387;DHT22;49473;50.772;8.768;2022-07-04T09:41:55;35.90;48.30
2387;DHT22;49473;50.772;8.768;2022-07-04T09:44:24;36.50;47.00
2387;DHT22;49473;50.772;8.768;2022-07-04T09:46:51;36.70;46.60
2387;DHT22;49473;50.772;8.768;2022-07-04T09:49:18;36.70;46.50
2387;DHT22;49473;50.772;8.768;2022-07-04T09:51:48;36.40;46.50
2387;DHT22;49473;50.772;8.768;2022-07-04T09:54:20;37.30;46.50
2387;DHT22;49473;50.772;8.768;2022-07-04T09:56:51;38.60;45.30
2387;DHT22;49473;50.772;8.768;2022-07-04T09:59:20;39.20;44.00
2387;DHT22;49473;50.772;8.768;2022-07-04T10:01:47;38.30;44.80
2387;DHT22;49473;50.772;8.768;2022-07-04T10:04:14;36.90;44.90
2387;DHT22;49473;50.772;8.768;2022-07-04T10:06:42;36.70;45.20
2387;DHT22;49473;50.772;8.768;2022-07-04T10:09:11;38.30;45.50
2387;DHT22;49473;50.772;8.768;2022-07-04T10:11:39;38.90;44.90
2387;DHT22;49473;50.772;8.768;2022-07-04T10:14:08;39.50;44.10
2387;DHT22;49473;50.772;8.768;2022-07-04T10:16:37;38.20;44.90
2387;DHT22;49473;50.772;8.768;2022-07-04T10:19:04;36.90;44.20
2387;DHT22;49473;50.772;8.768;2022-07-04T10:21:31;37.80;43.90
2387;DHT22;49473;50.772;8.768;2022-07-04T10:23:58;38.60;43.80
2387;DHT22;49473;50.772;8.768;2022-07-04T10:26:26;38.80;42.60
2387;DHT22;49473;50.772;8.768;2022-07-04T10:28:53;39.50;42.40
2387;DHT22;49473;50.772;8.768;2022-07-04T10:31:22;40.30;42.60
2387;DHT22;49473;50.772;8.768;2022-07-04T10:33:52;39.20;41.90
2387;DHT22;49473;50.772;8.768;2022-07-04T10:36:23;39.50;42.20
2387;DHT22;49473;50.772;8.768;2022-07-04T10:38:54;38.60;42.50
2387;DHT22;49473;50.772;8.768;2022-07-04T10:41:22;39.30;42.50
2387;DHT22;49473;50.772;8.768;2022-07-04T10:43:57;38.30;42.20
2387;DHT22;49473;50.772;8.768;2022-07-04T10:46:45;36.10;43.20
2387;DHT22;49473;50.772;8.768;2022-07-04T10:49:21;36.30;45.50
2387;DHT22;49473;50.772;8.768;2022-07-04T10:51:50;37.80;44.00
2387;DHT22;49473;50.772;8.768;2022-07-04T10:54:18;38.80;42.70
2387;DHT22;49473;50.772;8.768;2022-07-04T10:56:47;38.80;42.20
2387;DHT22;49473;50.772;8.768;2022-07-04T10:59:17;37.40;40.80
2387;DHT22;49473;50.772;8.768;2022-07-04T11:01:49;37.80;42.20
2387;DHT22;49473;50.772;8.768;2022-07-04T11:07:58;39.40;41.70
2387;DHT22;49473;50.772;8.768;2022-07-04T11:10:25;39.90;40.60
2387;DHT22;49473;50.772;8.768;2022-07-04T11:13:15;39.60;40.70
2387;DHT22;49473;50.772;8.768;2022-07-04T11:16:06;39.90;41.40
2387;DHT22;49473;50.772;8.768;2022-07-04T11:18:39;41.00;41.50
2387;DHT22;49473;50.772;8.768;2022-07-04T11:21:17;40.50;40.10
2387;DHT22;49473;50.772;8.768;2022-07-04T11:23:50;40.60;40.40
2387;DHT22;49473;50.772;8.768;2022-07-04T11:26:19;40.70;41.40
2387;DHT22;49473;50.772;8.768;2022-07-04T11:28:46;40.30;41.30
2387;DHT22;49473;50.772;8.768;2022-07-04T11:31:14;39.30;40.80
2387;DHT22;49473;50.772;8.768;2022-07-04T11:33:41;40.90;40.90
2387;DHT22;49473;50.772;8.768;2022-07-04T11:36:09;41.20;39.70
2387;DHT22;49473;50.772;8.768;2022-07-04T11:38:47;41.00;39.40
2387;DHT22;49473;50.772;8.768;2022-07-04T11:41:16;41.80;39.50
2387;DHT22;49473;50.772;8.768;2022-07-04T11:44:05;41.60;38.50
2387;DHT22;49473;50.772;8.768;2022-07-04T11:46:50;41.50;38.80
2387;DHT22;49473;50.772;8.768;2022-07-04T11:49:17;40.20;40.10
2387;DHT22;49473;50.772;8.768;2022-07-04T11:51:45;40.80;39.80
2387;DHT22;49473;50.772;8.768;2022-07-04T11:54:13;41.30;38.70
2387;DHT22;49473;50.772;8.768;2022-07-04T11:56:41;41.60;39.10
2387;DHT22;49473;50.772;8.768;2022-07-04T11:59:12;42.20;38.70
2387;DHT22;49473;50.772;8.768;2022-07-04T12:01:40;41.80;38.00
2387;DHT22;49473;50.772;8.768;2022-07-04T12:04:14;42.00;37.60
2387;DHT22;49473;50.772;8.768;2022-07-04T12:06:42;40.50;38.50
2387;DHT22;49473;50.772;8.768;2022-07-04T12:09:10;40.70;38.30
2387;DHT22;49473;50.772;8.768;2022-07-04T12:11:55;40.30;39.20
2387;DHT22;49473;50.772;8.768;2022-07-04T12:14:22;39.60;39.10
2387;DHT22;49473;50.772;8.768;2022-07-04T12:16:49;39.90;39.10
2387;DHT22;49473;50.772;8.768;2022-07-04T12:19:16;40.40;39.00
2387;DHT22;49473;50.772;8.768;2022-07-04T12:21:43;41.20;38.10
2387;DHT22;49473;50.772;8.768;2022-07-04T12:24:10;41.00;37.80
2387;DHT22;49473;50.772;8.768;2022-07-04T12:26:46;40.40;37.90
2387;DHT22;49473;50.772;8.768;2022-07-04T12:29:22;40.50;38.40
2387;DHT22;49473;50.772;8.768;2022-07-04T12:31:51;40.80;38.60
2387;DHT22;49473;50.772;8.768;2022-07-04T12:34:20;41.30;37.30
2387;DHT22;49473;50.772;8.768;2022-07-04T12:36:51;41.40;38.00
2387;DHT22;49473;50.772;8.768;2022-07-04T12:39:31;41.10;37.30
2387;DHT22;49473;50.772;8.768;2022-07-04T12:42:06;41.00;37.50
2387;DHT22;49473;50.772;8.768;2022-07-04T12:44:34;39.50;37.60
2387;DHT22;49473;50.772;8.768;2022-07-04T12:47:03;38.80;39.40
2387;DHT22;49473;50.772;8.768;2022-07-04T12:49:30;38.90;39.70
2387;DHT22;49473;50.772;8.768;2022-07-04T12:52:08;38.90;38.50
2387;DHT22;49473;50.772;8.768;2022-07-04T12:54:36;38.00;39.80
2387;DHT22;49473;50.772;8.768;2022-07-04T12:57:09;37.40;39.70
2387;DHT22;49473;50.772;8.768;2022-07-04T12:59:37;37.20;39.50
2387;DHT22;49473;50.772;8.768;2022-07-04T13:02:05;37.50;40.30
2387;DHT22;49473;50.772;8.768;2022-07-04T13:04:32;37.50;41.30
2387;DHT22;49473;50.772;8.768;2022-07-04T13:07:00;37.20;40.50
2387;DHT22;49473;50.772;8.768;2022-07-04T13:09:38;37.00;40.40
2387;DHT22;49473;50.772;8.768;2022-07-04T13:12:05;36.60;39.70
2387;DHT22;49473;50.772;8.768;2022-07-04T13:14:52;36.10;41.90
2387;DHT22;49473;50.772;8.768;2022-07-04T13:17:20;35.60;41.80
2387;DHT22;49473;50.772;8.768;2022-07-04T13:19:47;35.30;42.70
2387;DHT22;49473;50.772;8.768;2022-07-04T13:22:13;34.90;43.50
2387;DHT22;49473;50.772;8.768;2022-07-04T13:24:40;34.70;43.90
2387;DHT22;49473;50.772;8.768;2022-07-04T13:27:07;34.40;44.50
2387;DHT22;49473;50.772;8.768;2022-07-04T13:29:34;33.40;43.20
2387;DHT22;49473;50.772;8.768;2022-07-04T13:32:03;32.90;44.40
2387;DHT22;49473;50.772;8.768;2022-07-04T13:34:30;32.20;46.00
2387;DHT22;49473;50.772;8.768;2022-07-04T13:36:57;32.20;47.30
2387;DHT22;49473;50.772;8.768;2022-07-04T13:39:23;32.20;47.60
2387;DHT22;49473;50.772;8.768;2022-07-04T13:41:50;32.40;47.80
2387;DHT22;49473;50.772;8.768;2022-07-04T13:44:17;31.90;47.80
2387;DHT22;49473;50.772;8.768;2022-07-04T13:46:44;31.80;48.00
2387;DHT22;49473;50.772;8.768;2022-07-04T13:49:12;31.50;48.70
2387;DHT22;49473;50.772;8.768;2022-07-04T13:51:39;31.00;48.20
2387;DHT22;49473;50.772;8.768;2022-07-04T13:54:06;30.90;49.20
2387;DHT22;49473;50.772;8.768;2022-07-04T13:56:33;30.40;49.30
2387;DHT22;49473;50.772;8.768;2022-07-04T13:59:01;29.80;50.10
2387;DHT22;49473;50.772;8.768;2022-07-04T14:01:28;29.60;51.10
2387;DHT22;49473;50.772;8.768;2022-07-04T14:03:55;29.50;51.90
2387;DHT22;49473;50.772;8.768;2022-07-04T14:06:23;29.10;52.10
2387;DHT22;49473;50.772;8.768;2022-07-04T14:08:50;29.00;52.50
2387;DHT22;49473;50.772;8.768;2022-07-04T14:11:16;29.10;52.60
2387;DHT22;49473;50.772;8.768;2022-07-04T14:13:43;29.40;52.40
2387;DHT22;49473;50.772;8.768;2022-07-04T14:16:10;29.20;50.30
2387;DHT22;49473;50.772;8.768;2022-07-04T14:18:36;29.60;50.30
2387;DHT22;49473;50.772;8.768;2022-07-04T14:21:03;29.70;51.30
2387;DHT22;49473;50.772;8.768;2022-07-04T14:23:31;29.40;52.00
2387;DHT22;49473;50.772;8.768;2022-07-04T14:26:08;29.70;50.50
2387;DHT22;49473;50.772;8.768;2022-07-04T14:28:35;29.60;51.10
2387;DHT22;49473;50.772;8.768;2022-07-04T14:31:02;29.70;51.60
2387;DHT22;49473;50.772;8.768;2022-07-04T14:33:28;29.40;50.50
2387;DHT22;49473;50.772;8.768;2022-07-04T14:35:55;29.30;51.90
2387;DHT22;49473;50.772;8.768;2022-07-04T14:38:22;29.20;50.40
2387;DHT22;49473;50.772;8.768;2022-07-04T14:40:50;29.40;51.30
2387;DHT22;49473;50.772;8.768;2022-07-04T14:43:17;29.30;51.30
2387;DHT22;49473;50.772;8.768;2022-07-04T14:45:44;29.20;52.30
2387;DHT22;49473;50.772;8.768;2022-07-04T14:48:12;29.20;53.30
2387;DHT22;49473;50.772;8.768;2022-07-04T14:50:40;28.90;52.00
2387;DHT22;49473;50.772;8.768;2022-07-04T14:53:07;28.70;52.50
2387;DHT22;49473;50.772;8.768;2022-07-04T14:55:33;28.50;52.80
2387;DHT22;49473;50.772;8.768;2022-07-04T14:58:02;28.30;53.00
2387;DHT22;49473;50.772;8.768;2022-07-04T15:00:28;28.00;53.70
2387;DHT22;49473;50.772;8.768;2022-07-04T15:02:55;27.50;53.60
2387;DHT22;49473;50.772;8.768;2022-07-04T15:05:22;27.20;54.80
2387;DHT22;49473;50.772;8.768;2022-07-04T15:07:49;27.20;54.90
2387;DHT22;49473;50.772;8.768;2022-07-04T15:10:15;27.40;55.70
2387;DHT22;49473;50.772;8.768;2022-07-04T15:12:42;27.50;54.40
2387;DHT22;49473;50.772;8.768;2022-07-04T15:15:10;27.50;54.20
2387;DHT22;49473;50.772;8.768;2022-07-04T15:17:37;27.60;54.60
2387;DHT22;49473;50.772;8.768;2022-07-04T15:20:05;27.80;55.80
2387;DHT22;49473;50.772;8.768;2022-07-04T15:22:50;27.80;53.30
2387;DHT22;49473;50.772;8.768;2022-07-04T15:25:34;27.80;53.60
2387;DHT22;49473;50.772;8.768;2022-07-04T15:28:01;27.50;53.70
2387;DHT22;49473;50.772;8.768;2022-07-04T15:30:29;27.50;55.00
2387;DHT22;49473;50.772;8.768;2022-07-04T15:32:56;27.50;54.60
2387;DHT22;49473;50.772;8.768;2022-07-04T15:35:23;27.50;55.20
2387;DHT22;49473;50.772;8.768;2022-07-04T15:37:49;27.50;55.30
2387;DHT22;49473;50.772;8.768;2022-07-04T15:40:17;27.60;55.70
2387;DHT22;49473;50.772;8.768;2022-07-04T15:42:43;27.60;54.70
2387;DHT22;49473;50.772;8.768;2022-07-04T15:45:10;27.30;54.50
2387;DHT22;49473;50.772;8.768;2022-07-04T15:47:38;27.30;55.10
2387;DHT22;49473;50.772;8.768;2022-07-04T15:50:06;27.20;54.60
2387;DHT22;49473;50.772;8.768;2022-07-04T15:52:33;27.10;55.40
2387;DHT22;49473;50.772;8.768;2022-07-04T15:54:59;27.20;55.10
2387;DHT22;49473;50.772;8.768;2022-07-04T15:57:26;27.30;55.60
2387;DHT22;49473;50.772;8.768;2022-07-04T15:59:53;27.40;55.20
2387;DHT22;49473;50.772;8.768;2022-07-04T16:02:19;27.30;55.30
2387;DHT22;49473;50.772;8.768;2022-07-04T16:04:47;27.30;56.90
2387;DHT22;49473;50.772;8.768;2022-07-04T16:07:14;27.20;56.00
2387;DHT22;49473;50.772;8.768;2022-07-04T16:09:42;27.20;56.30
2387;DHT22;49473;50.772;8.768;2022-07-04T16:12:08;27.30;55.60
2387;DHT22;49473;50.772;8.768;2022-07-04T16:14:36;27.20;56.10
2387;DHT22;49473;50.772;8.768;2022-07-04T16:17:03;27.20;56.30
2387;DHT22;49473;50.772;8.768;2022-07-04T16:19:30;27.20;56.50
2387;DHT22;49473;50.772;8.768;2022-07-04T16:21:58;27.10;56.10
2387;DHT22;49473;50.772;8.768;2022-07-04T16:24:25;27.20;56.50
2387;DHT22;49473;50.772;8.768;2022-07-04T16:26:51;27.10;55.50
2387;DHT22;49473;50.772;8.768;2022-07-04T16:29:18;27.20;57.10
2387;DHT22;49473;50.772;8.768;2022-07-04T16:31:45;27.20;56.70
2387;DHT22;49473;50.772;8.768;2022-07-04T16:34:11;27.10;56.20
2387;DHT22;49473;50.772;8.768;2022-07-04T16:36:38;27.10;56.20
2387;DHT22;49473;50.772;8.768;2022-07-04T16:39:07;27.10;56.60
2387;DHT22;49473;50.772;8.768;2022-07-04T16:41:33;27.10;57.20
2387;DHT22;49473;50.772;8.768;2022-07-04T16:44:00;27.00;57.90
2387;DHT22;49473;50.772;8.768;2022-07-04T16:46:27;27.00;56.80
2387;DHT22;49473;50.772;8.768;2022-07-04T16:48:53;27.00;55.50
2387;DHT22;49473;50.772;8.768;2022-07-04T16:51:20;26.90;56.70
2387;DHT22;49473;50.772;8.768;2022-07-04T16:53:47;26.70;58.20